createdAt,value
2023-01-10T00:00:02.000Z,96381
2023-01-10T00:05:02.000Z,96396
2023-01-10T00:10:02.000Z,96404
2023-01-10T00:15:02.000Z,96404
2023-01-10T00:20:02.000Z,96419
2023-01-10T00:25:02.000Z,96431
2023-01-10T00:30:02.000Z,96450
2023-01-10T00:35:02.000Z,96460
2023-01-10T00:40:02.000Z,96472
2023-01-10T00:45:02.000Z,96498
2023-01-10T00:50:02.000Z,96516
2023-01-10T00:55:02.000Z,96537
2023-01-10T01:00:02.000Z,96548
2023-01-10T01:05:02.000Z,96556
2023-01-10T01:10:03.000Z,96559
2023-01-10T01:15:03.000Z,96574
2023-01-10T01:20:03.000Z,96590
2023-01-10T01:25:03.000Z,96603
2023-01-10T01:30:03.000Z,96615
2023-01-10T01:35:03.000Z,96621
2023-01-10T01:40:03.000Z,96657
2023-01-10T01:45:03.000Z,96680
2023-01-10T01:50:03.000Z,96683
2023-01-10T01:55:03.000Z,96694
2023-01-10T02:00:03.000Z,96703
2023-01-10T02:05:03.000Z,96695
2023-01-10T02:10:03.000Z,96711
2023-01-10T02:15:03.000Z,96716
2023-01-10T02:20:03.000Z,96721
2023-01-10T02:25:03.000Z,96724
2023-01-10T02:30:03.000Z,96730
2023-01-10T02:35:03.000Z,96740
2023-01-10T02:40:03.000Z,96735
2023-01-10T02:45:03.000Z,96740
2023-01-10T02:50:03.000Z,96741
2023-01-10T02:55:03.000Z,96752
2023-01-10T03:00:03.000Z,96748
2023-01-10T03:05:03.000Z,96757
2023-01-10T03:10:03.000Z,96789
2023-01-10T03:15:03.000Z,96794
2023-01-10T03:20:03.000Z,96807
2023-01-10T03:25:03.000Z,96813
2023-01-10T03:30:03.000Z,96823
2023-01-10T03:35:03.000Z,96830
2023-01-10T03:40:03.000Z,96850
2023-01-10T03:45:03.000Z,96854
2023-01-10T03:50:03.000Z,96852
2023-01-10T03:55:03.000Z,96866
2023-01-10T04:00:03.000Z,96853
2023-01-10T04:05:03.000Z,96882
2023-01-10T04:10:03.000Z,96882
2023-01-10T04:15:03.000Z,96887
2023-01-10T04:20:03.000Z,96879
2023-01-10T04:25:03.000Z,96889
2023-01-10T04:30:03.000Z,96919
2023-01-10T04:35:03.000Z,96927
2023-01-10T04:40:03.000Z,96934
2023-01-10T04:45:03.000Z,96952
2023-01-10T04:50:03.000Z,96957
2023-01-10T04:55:03.000Z,96959
2023-01-10T05:00:03.000Z,96965
2023-01-10T05:05:03.000Z,96972
2023-01-10T05:10:03.000Z,96980
2023-01-10T05:15:03.000Z,96982
2023-01-10T05:20:03.000Z,96984
2023-01-10T05:25:03.000Z,97002
2023-01-10T05:30:03.000Z,96994
2023-01-10T05:35:03.000Z,97003
2023-01-10T05:40:03.000Z,97012
2023-01-10T05:45:03.000Z,97020
2023-01-10T05:50:03.000Z,97028
2023-01-10T05:55:03.000Z,97027
2023-01-10T06:00:03.000Z,97023
2023-01-10T06:05:03.000Z,97030
2023-01-10T06:10:03.000Z,97038
2023-01-10T06:15:03.000Z,97047
2023-01-10T06:20:03.000Z,97040
2023-01-10T06:25:03.000Z,97039
2023-01-10T06:30:03.000Z,97061
2023-01-10T06:35:03.000Z,97075
2023-01-10T06:40:03.000Z,97089
2023-01-10T06:45:03.000Z,97089
2023-01-10T06:50:03.000Z,97099
2023-01-10T06:55:03.000Z,97099
2023-01-10T07:00:03.000Z,97100
2023-01-10T07:05:03.000Z,97114
2023-01-10T07:10:03.000Z,97122
2023-01-10T07:15:03.000Z,97135
2023-01-10T07:20:03.000Z,97147
2023-01-10T07:25:03.000Z,97157
2023-01-10T07:30:03.000Z,97160
2023-01-10T07:35:03.000Z,97157
2023-01-10T07:40:03.000Z,97175
2023-01-10T07:45:03.000Z,97176
2023-01-10T07:50:03.000Z,97176
2023-01-10T07:55:03.000Z,97160
2023-01-10T08:00:03.000Z,97177
2023-01-10T08:05:03.000Z,97197
2023-01-10T08:10:03.000Z,97204
2023-01-10T08:15:03.000Z,97212
2023-01-10T08:20:03.000Z,97227
2023-01-10T08:25:03.000Z,97230
2023-01-10T08:30:03.000Z,97225
2023-01-10T08:35:03.000Z,97239
2023-01-10T08:40:03.000Z,97234
2023-01-10T08:45:03.000Z,97235
2023-01-10T08:50:03.000Z,97244
2023-01-10T08:55:03.000Z,97238
2023-01-10T09:00:03.000Z,97249
2023-01-10T09:05:03.000Z,97248
2023-01-10T09:10:03.000Z,97253
2023-01-10T09:15:03.000Z,97262
2023-01-10T09:20:03.000Z,97278
2023-01-10T09:25:03.000Z,97281
2023-01-10T09:30:03.000Z,97278
2023-01-10T09:35:03.000Z,97275
2023-01-10T09:40:03.000Z,97290
2023-01-10T09:45:03.000Z,97294
2023-01-10T09:50:03.000Z,97305
2023-01-10T09:55:03.000Z,97317
2023-01-10T10:00:03.000Z,97303
2023-01-10T10:05:03.000Z,97301
2023-01-10T10:10:03.000Z,97296
2023-01-10T10:15:03.000Z,97292
2023-01-10T10:20:03.000Z,97308
2023-01-10T10:25:03.000Z,97295
2023-01-10T10:30:03.000Z,97296
2023-01-10T10:35:03.000Z,97301
2023-01-10T10:40:03.000Z,97298
2023-01-10T10:45:03.000Z,97300
2023-01-10T10:50:03.000Z,97296
2023-01-10T10:55:03.000Z,97283
2023-01-10T11:00:03.000Z,97279
2023-01-10T11:05:03.000Z,97276
2023-01-10T11:10:03.000Z,97270
2023-01-10T11:15:03.000Z,97266
2023-01-10T11:20:03.000Z,97270
2023-01-10T11:25:03.000Z,97264
2023-01-10T11:30:03.000Z,97262
2023-01-10T11:35:03.000Z,97258
2023-01-10T11:40:03.000Z,97246
2023-01-10T11:45:03.000Z,97246
2023-01-10T11:50:03.000Z,97232
2023-01-10T11:55:03.000Z,97238
2023-01-10T12:00:03.000Z,97223
2023-01-10T12:05:03.000Z,97213
2023-01-10T12:10:03.000Z,97217
2023-01-10T12:15:03.000Z,97216
2023-01-10T12:20:03.000Z,97202
2023-01-10T12:25:03.000Z,97198
2023-01-10T12:30:03.000Z,97193
2023-01-10T12:35:03.000Z,97181
2023-01-10T12:40:03.000Z,97178
2023-01-10T12:45:03.000Z,97178
2023-01-10T12:50:03.000Z,97166
2023-01-10T12:55:03.000Z,97168
2023-01-10T13:00:03.000Z,97153
2023-01-10T13:05:03.000Z,97131
2023-01-10T13:10:03.000Z,97133
2023-01-10T13:15:03.000Z,97135
2023-01-10T13:20:03.000Z,97128
2023-01-10T13:25:03.000Z,97118
2023-01-10T13:30:03.000Z,97109
2023-01-10T13:35:03.000Z,97105
2023-01-10T13:40:03.000Z,97099
2023-01-10T13:45:03.000Z,97101
2023-01-10T13:50:03.000Z,97090
2023-01-10T13:55:03.000Z,97098
2023-01-10T14:00:03.000Z,97086
2023-01-10T14:05:03.000Z,97072
2023-01-10T14:10:03.000Z,97070
2023-01-10T14:15:03.000Z,97080
2023-01-10T14:20:03.000Z,97082
2023-01-10T14:25:03.000Z,97082
2023-01-10T14:30:03.000Z,97080
2023-01-10T14:35:03.000Z,97084
2023-01-10T14:40:03.000Z,97090
2023-01-10T14:45:03.000Z,97083
2023-01-10T14:50:03.000Z,97084
2023-01-10T14:55:03.000Z,97084
2023-01-10T15:00:03.000Z,97078
2023-01-10T15:05:03.000Z,97074
2023-01-10T15:10:03.000Z,97088
2023-01-10T15:15:03.000Z,97076
2023-01-10T15:20:03.000Z,97064
2023-01-10T15:25:03.000Z,97062
2023-01-10T15:30:03.000Z,97058
2023-01-10T15:35:03.000Z,97067
2023-01-10T15:40:03.000Z,97058
2023-01-10T15:45:03.000Z,97058
2023-01-10T15:50:03.000Z,97043
2023-01-10T15:55:03.000Z,97046
2023-01-10T16:00:03.000Z,97044
2023-01-10T16:05:03.000Z,97047
2023-01-10T16:10:03.000Z,97048
2023-01-10T16:15:03.000Z,97049
2023-01-10T16:20:03.000Z,97043
2023-01-10T16:25:03.000Z,97045
2023-01-10T16:30:03.000Z,97053
2023-01-10T16:35:03.000Z,97043
2023-01-10T16:40:03.000Z,97030
2023-01-10T16:45:03.000Z,97034
2023-01-10T16:50:03.000Z,97030
2023-01-10T16:55:03.000Z,97041
2023-01-10T17:00:03.000Z,97046
2023-01-10T17:05:03.000Z,97044
2023-01-10T17:10:03.000Z,97028
2023-01-10T17:15:03.000Z,97021
2023-01-10T17:20:03.000Z,97021
2023-01-10T17:25:03.000Z,97024
2023-01-10T17:30:03.000Z,97030
2023-01-10T17:35:03.000Z,97037
2023-01-10T17:40:03.000Z,97030
2023-01-10T17:45:03.000Z,97025
2023-01-10T17:50:03.000Z,97029
2023-01-10T17:55:03.000Z,97029
2023-01-10T18:00:03.000Z,97021
2023-01-10T18:05:03.000Z,97019
2023-01-10T18:10:03.000Z,97020
2023-01-10T18:15:03.000Z,97011
2023-01-10T18:20:03.000Z,97012
2023-01-10T18:25:03.000Z,97020
2023-01-10T18:30:03.000Z,97013
2023-01-10T18:35:03.000Z,97011
2023-01-10T18:40:03.000Z,97016
2023-01-10T18:45:03.000Z,97002
2023-01-10T18:50:03.000Z,97004
2023-01-10T18:55:03.000Z,97010
2023-01-10T19:00:03.000Z,97002
2023-01-10T19:05:03.000Z,96997
2023-01-10T19:10:03.000Z,97000
2023-01-10T19:15:03.000Z,96990
2023-01-10T19:20:03.000Z,96997
2023-01-10T19:25:03.000Z,96992
2023-01-10T19:30:03.000Z,97001
2023-01-10T19:35:03.000Z,97000
2023-01-10T19:40:03.000Z,96998
2023-01-10T19:45:03.000Z,96994
2023-01-10T19:50:03.000Z,96989
2023-01-10T19:55:03.000Z,96992
2023-01-10T20:00:03.000Z,96986
2023-01-10T20:05:03.000Z,96984
2023-01-10T20:10:03.000Z,96970
2023-01-10T20:15:04.000Z,96972
2023-01-10T20:20:04.000Z,96981
2023-01-10T20:25:04.000Z,96976
2023-01-10T20:30:04.000Z,96985
2023-01-10T20:35:04.000Z,96976
2023-01-10T20:40:04.000Z,96985
2023-01-10T20:45:04.000Z,96987
2023-01-10T20:50:04.000Z,96985
2023-01-10T20:55:04.000Z,96971
2023-01-10T21:00:04.000Z,96982
2023-01-10T21:05:04.000Z,96982
2023-01-10T21:10:04.000Z,96989
2023-01-10T21:15:04.000Z,96979
2023-01-10T21:20:04.000Z,96979
2023-01-10T21:25:04.000Z,96986
2023-01-10T21:30:04.000Z,96992
2023-01-10T21:35:04.000Z,96987
2023-01-10T21:40:04.000Z,96980
2023-01-10T21:45:04.000Z,96991
2023-01-10T21:50:04.000Z,96976
2023-01-10T21:55:04.000Z,96960
2023-01-10T22:00:04.000Z,96968
2023-01-10T22:05:04.000Z,96976
2023-01-10T22:10:04.000Z,96963
2023-01-10T22:15:04.000Z,96963
2023-01-10T22:20:04.000Z,96962
2023-01-10T22:25:04.000Z,96959
2023-01-10T22:30:04.000Z,96950
2023-01-10T22:35:04.000Z,96942
2023-01-10T22:40:04.000Z,96950
2023-01-10T22:45:04.000Z,96945
2023-01-10T22:50:04.000Z,96942
2023-01-10T22:55:04.000Z,96930
2023-01-10T23:00:04.000Z,96932
2023-01-10T23:05:04.000Z,96926
2023-01-10T23:10:04.000Z,96934
2023-01-10T23:15:04.000Z,96918
2023-01-10T23:20:04.000Z,96917
2023-01-10T23:25:04.000Z,96896
2023-01-10T23:30:04.000Z,96923
2023-01-10T23:35:04.000Z,96908
2023-01-10T23:40:04.000Z,96911
2023-01-10T23:45:04.000Z,96904
2023-01-10T23:50:04.000Z,96915
2023-01-10T23:55:04.000Z,96917
